Terminal Aerodrome Forecast
Issued by NWS Boston, MA

Home | Current Version | Previous Version | Text Only | Print | Product List | Glossary On
Versions: 1 2 3 4 5 6 7 8 9 10 11 12 13 14 15 16 17 18 19 20 21 22 23 24
000
FTUS41 KBOX 272032 AAA
TAFBOS
TAF AMD
KBOS 272032Z 2721/2824 02005KT 6SM BR VCSH OVC008
     FM272200 VRB04KT 3SM BR OVC005
     FM280500 VRB05KT 2SM -DZ BR OVC002
     FM281300 07004KT 2SM BR VCSH BKN003
     FM281800 09004KT 3SM -RA BR BKN005=

USA.gov is the U.S. government's official web portal to all federal, state and local government web resources and services.